Time;durP1;ratioP1;P1;durP2;ratioP2;P2;SDS_P1;SDS_P2;PMS_P1;PMS_P2;Temp;Humidity;BMP_temperature;BMP_pressure;BME280_temperature;BME280_humidity;BME280_pressure;Samples;Min_cycle;Max_cycle;Signal;HPM_P1;HPM_P2
2022/06/05 00:01:00;;;;;;;10.73;7.47;;;;;;;19.75;90.58;100884.03;4957785;29;20406;-69
2022/06/05 00:03:36;;;;;;;10.73;7.38;;;;;;;19.78;89.97;100907.66;4972285;28;20055;-69
2022/06/05 00:06:14;;;;;;;10.55;7.75;;;;;;;19.83;89.56;100905.38;4956523;29;20128;-70
2022/06/05 00:09:29;;;;;;;12.38;7.55;;;;;;;19.77;90.61;100904.03;4972214;28;20059;-69
2022/06/05 00:12:07;;;;;;;11.32;7.35;;;;;;;19.68;90.78;100900.66;4955914;29;20078;-69
2022/06/05 00:14:37;;;;;;;14.88;8.00;;;;;;;19.65;90.71;100890.22;4972335;28;20055;-70
2022/06/05 00:17:11;;;;;;;13.35;7.93;;;;;;;19.71;89.96;100891.56;4957735;29;20047;-69
2022/06/05 00:19:44;;;;;;;12.77;8.68;;;;;;;19.79;89.42;100892.47;4960103;28;20058;-69
2022/06/05 00:22:11;;;;;;;11.55;7.88;;;;;;;19.70;90.14;100900.31;4957320;29;20051;-69
2022/06/05 00:24:40;;;;;;;11.80;7.95;;;;;;;19.58;90.94;100903.28;4967632;28;20542;-64
2022/06/05 00:27:29;;;;;;;12.93;8.57;;;;;;;19.58;92.01;100906.06;4988383;28;20043;-63
2022/06/05 00:30:04;;;;;;;13.25;8.90;;;;;;;19.65;91.39;100903.41;4954422;29;20050;-70
2022/06/05 00:32:41;;;;;;;14.10;8.50;;;;;;;19.62;91.68;100909.72;4957345;29;20062;-64
2022/06/05 00:35:15;;;;;;;12.35;8.48;;;;;;;19.47;93.33;100902.25;4956036;29;20077;-63
2022/06/05 00:38:01;;;;;;;12.23;8.23;;;;;;;19.45;93.08;100893.44;4969233;28;20047;-65
2022/06/05 00:40:34;;;;;;;12.00;8.23;;;;;;;19.57;92.84;100885.69;4942729;28;20055;-64
2022/06/05 00:43:05;;;;;;;13.73;8.55;;;;;;;19.50;92.79;100881.94;4976422;28;20051;-63
2022/06/05 00:45:33;;;;;;;12.50;8.40;;;;;;;19.42;94.12;100867.03;4976776;28;20074;-63
2022/06/05 00:48:00;;;;;;;15.65;9.18;;;;;;;19.57;93.40;100873.69;4975188;28;20050;-70
2022/06/05 00:50:30;;;;;;;15.07;10.18;;;;;;;19.41;93.30;100861.81;4975153;28;20276;-63
2022/06/05 00:53:00;;;;;;;16.98;10.70;;;;;;;19.32;93.99;100856.44;4976365;28;20054;-63
2022/06/05 00:55:31;;;;;;;15.02;10.25;;;;;;;19.26;95.50;100857.91;4942721;28;20062;-63
2022/06/05 00:57:58;;;;;;;16.67;10.18;;;;;;;19.17;95.62;100854.53;4975327;28;20167;-64
2022/06/05 01:00:36;;;;;;;13.82;9.73;;;;;;;19.22;96.25;100859.00;4959100;28;20066;-62
2022/06/05 01:03:06;;;;;;;21.70;9.68;;;;;;;19.32;95.77;100858.47;4975293;28;20051;-64
2022/06/05 01:05:34;;;;;;;;;;;;;;;19.02;97.06;100866.59;4978842;28;20055;-62
2022/06/05 01:08:02;;;;;;;16.65;10.20;;;;;;;19.05;97.78;100858.28;4995419;28;19922;-63
2022/06/05 01:11:01;;;;;;;16.80;10.73;;;;;;;19.27;96.45;100855.91;4978893;28;20058;-64
2022/06/05 01:13:42;;;;;;;16.13;10.68;;;;;;;19.14;95.92;100843.28;4994889;28;20069;-64
2022/06/05 01:16:28;;;;;;;20.65;10.32;;;;;;;19.06;97.37;100842.31;4963323;28;20055;-64
2022/06/05 01:19:25;;;;;;;14.52;10.30;;;;;;;19.23;96.64;100832.69;4963283;28;20046;-64
2022/06/05 01:21:55;;;;;;;15.15;10.00;;;;;;;19.25;96.33;100833.94;4980025;28;20046;-70
2022/06/05 01:24:31;;;;;;;13.82;10.50;;;;;;;19.17;96.54;100825.78;4980399;28;20053;-70
2022/06/05 01:27:01;;;;;;;20.02;10.80;;;;;;;19.18;96.63;100819.03;4962279;28;20050;-70
2022/06/05 01:29:43;;;;;;;18.52;11.02;;;;;;;19.20;96.86;100805.50;4994871;28;20051;-70
2022/06/05 01:32:39;;;;;;;13.70;10.75;;;;;;;19.07;97.17;100802.84;4970991;28;20059;-69
2022/06/05 01:35:31;;;;;;;15.00;11.15;;;;;;;19.08;97.68;100798.91;4972018;28;20074;-63
2022/06/05 01:38:08;;;;;;;15.88;11.15;;;;;;;19.11;97.96;100793.75;4979583;28;20653;-70
2022/06/05 01:40:40;;;;;;;14.23;10.90;;;;;;;19.14;96.97;100787.44;4962982;28;20054;-69
2022/06/05 01:43:10;;;;;;;17.98;10.88;;;;;;;18.99;97.13;100777.97;4978870;28;20422;-64
2022/06/05 01:45:41;;;;;;;15.57;10.88;;;;;;;19.02;97.29;100775.25;4979508;28;20645;-64
2022/06/05 01:48:13;;;;;;;14.20;11.15;;;;;;;19.16;97.50;100780.28;4962638;28;20065;-67
2022/06/05 01:50:46;;;;;;;16.85;10.90;;;;;;;19.13;96.14;100780.22;4979633;28;20058;-64
2022/06/05 01:53:22;;;;;;;16.67;10.90;;;;;;;18.95;96.82;100771.50;4979587;28;20402;-63
2022/06/05 01:55:55;;;;;;;16.48;12.30;;;;;;;19.02;96.44;100766.06;4961650;28;20054;-63
2022/06/05 01:58:34;;;;;;;19.23;11.85;;;;;;;18.87;97.59;100772.53;4962725;28;20050;-63
2022/06/05 02:01:04;;;;;;;16.75;12.30;;;;;;;18.63;98.86;100768.06;4979789;28;20398;-69
2022/06/05 02:03:37;;;;;;;17.67;11.95;;;;;;;18.69;99.09;100774.16;4994325;28;20054;-63
2022/06/05 02:06:11;;;;;;;16.45;11.57;;;;;;;18.78;97.89;100760.78;4993956;28;20053;-64
2022/06/05 02:08:47;;;;;;;16.63;11.80;;;;;;;18.66;99.17;100750.56;4979516;28;20067;-64
2022/06/05 02:11:16;;;;;;;16.27;11.80;;;;;;;18.60;98.53;100740.09;4979673;28;20537;-69
2022/06/05 02:13:43;;;;;;;16.65;12.07;;;;;;;18.66;98.19;100738.59;4979290;28;20080;-70
2022/06/05 02:16:11;;;;;;;18.05;11.50;;;;;;;18.64;97.86;100736.19;4993030;28;20054;-69
2022/06/05 02:18:39;;;;;;;20.05;12.25;;;;;;;18.84;97.24;100734.19;4978920;28;20066;-63
2022/06/05 02:21:06;;;;;;;17.65;11.63;;;;;;;18.79;96.53;100729.69;4978857;28;20058;-64
2022/06/05 02:23:35;;;;;;;18.42;12.02;;;;;;;18.85;96.99;100731.03;4945422;28;20054;-64
2022/06/05 02:26:05;;;;;;;17.95;11.20;;;;;;;18.98;95.22;100726.09;4979070;28;20055;-64
2022/06/05 02:28:34;;;;;;;16.08;11.75;;;;;;;18.70;96.62;100728.31;4961534;28;20054;-64
2022/06/05 02:31:27;;;;;;;13.25;10.98;;;;;;;18.69;96.73;100730.28;4978920;28;20054;-64
2022/06/05 02:34:13;;;;;;;14.25;10.45;;;;;;;18.65;97.38;100721.06;4979069;28;20046;-64
2022/06/05 02:36:45;;;;;;;15.70;9.38;;;;;;;18.61;97.01;100727.72;4993753;28;20414;-64
2022/06/05 02:39:49;;;;;;;12.98;10.23;;;;;;;18.39;98.33;100709.72;4961283;28;20054;-64
2022/06/05 02:42:26;;;;;;;13.43;9.55;;;;;;;18.70;96.34;100706.81;4993387;28;20066;-65
2022/06/05 02:45:18;;;;;;;13.15;9.52;;;;;;;18.78;95.59;100702.16;4976976;28;20054;-64
2022/06/05 02:48:32;;;;;;;11.82;9.05;;;;;;;18.66;95.69;100699.53;4993340;28;20055;-70
2022/06/05 02:51:05;;;;;;;13.93;9.88;;;;;;;18.61;96.17;100702.63;4968528;28;20062;-64
2022/06/05 02:53:50;;;;;;;16.75;9.52;;;;;;;18.61;95.70;100699.84;4960867;28;20059;-70
2022/06/05 02:56:18;;;;;;;13.32;9.82;;;;;;;18.54;95.54;100697.72;4969291;28;20058;-70
2022/06/05 02:58:47;;;;;;;15.07;10.27;;;;;;;18.61;95.48;100691.47;4973884;28;20514;-70
2022/06/05 03:04:00;;;;;;;15.07;9.95;;;;;;;18.59;95.45;100710.53;4963680;28;20066;-69
2022/06/05 03:06:29;;;;;;;14.18;10.15;;;;;;;18.56;95.79;100717.69;4976583;28;20063;-70
2022/06/05 03:08:57;;;;;;;17.13;11.00;;;;;;;18.25;96.35;100715.00;4992980;28;20055;-69
2022/06/05 03:11:24;;;;;;;18.85;10.65;;;;;;;18.27;96.92;100714.63;4977899;28;20042;-71
2022/06/05 03:13:52;;;;;;;13.88;9.82;;;;;;;18.35;96.80;100721.97;4976805;28;20054;-62
2022/06/05 03:16:19;;;;;;;14.80;10.65;;;;;;;17.98;97.79;100730.69;4993106;28;20047;-69
2022/06/05 03:18:47;;;;;;;16.27;10.25;;;;;;;18.04;98.07;100728.44;4973190;28;20058;-64
2022/06/05 03:21:14;;;;;;;20.13;11.10;;;;;;;18.08;98.41;100726.53;4976241;28;20210;-63
2022/06/05 03:23:41;;;;;;;15.40;10.60;;;;;;;17.70;99.11;100727.22;4977855;28;20061;-63
2022/06/05 03:26:11;;;;;;;14.27;10.73;;;;;;;17.62;100.00;100728.25;4960774;28;20513;-64
2022/06/05 03:28:44;;;;;;;16.85;11.65;;;;;;;17.66;100.00;100729.13;4977249;28;20047;-63
2022/06/05 03:31:11;;;;;;;17.30;11.75;;;;;;;17.79;100.00;100727.03;4977411;28;20051;-63
2022/06/05 03:33:38;;;;;;;17.40;11.90;;;;;;;17.92;98.88;100723.00;4977685;28;20057;-69
2022/06/05 03:36:11;;;;;;;16.35;11.40;;;;;;;18.07;98.29;100718.53;4977548;28;20065;-71
2022/06/05 03:38:39;;;;;;;17.95;12.75;;;;;;;18.12;96.26;100721.03;4977559;28;20073;-69
2022/06/05 03:41:08;;;;;;;19.15;11.85;;;;;;;17.95;97.52;100723.06;4977510;28;20434;-69
2022/06/05 03:43:36;;;;;;;17.10;11.80;;;;;;;18.05;97.62;100724.47;4960010;28;20530;-63
2022/06/05 03:46:11;;;;;;;18.75;12.55;;;;;;;17.88;97.81;100734.06;4976311;28;20050;-69
2022/06/05 03:48:39;;;;;;;19.52;12.90;;;;;;;18.01;97.72;100737.50;4944111;28;20496;-69
2022/06/05 03:51:07;;;;;;;17.55;12.68;;;;;;;17.94;98.21;100743.72;4975511;28;20054;-69
2022/06/05 03:53:35;;;;;;;20.20;12.30;;;;;;;17.97;97.84;100751.38;4977094;28;20054;-69
2022/06/05 03:56:08;;;;;;;16.77;11.73;;;;;;;18.11;96.78;100745.34;4977301;28;20051;-69
2022/06/05 03:58:35;;;;;;;15.55;11.30;;;;;;;18.23;96.12;100744.41;4977156;28;20065;-69
2022/06/05 04:01:03;;;;;;;17.88;11.68;;;;;;;18.02;96.40;100749.47;4976136;28;20062;-69
2022/06/05 04:03:31;;;;;;;18.08;11.50;;;;;;;18.17;96.87;100751.41;4960669;28;20081;-70
2022/06/05 04:05:58;;;;;;;16.42;10.65;;;;;;;18.47;95.19;100756.13;4976122;28;20057;-70
2022/06/05 04:08:25;;;;;;;17.60;10.07;;;;;;;18.32;94.79;100759.75;4976978;28;20051;-70
2022/06/05 04:10:53;;;;;;;15.40;9.50;;;;;;;18.44;93.89;100762.47;4977135;28;20062;-70
2022/06/05 04:13:20;;;;;;;15.73;9.27;;;;;;;18.65;93.47;100756.53;4976918;28;20058;-64
2022/06/05 04:15:47;;;;;;;15.38;9.57;;;;;;;18.83;91.65;100768.84;4976863;28;20051;-70
2022/06/05 04:18:15;;;;;;;13.45;8.90;;;;;;;18.98;89.75;100777.16;4977203;28;20525;-63
2022/06/05 04:20:42;;;;;;;14.98;8.98;;;;;;;18.72;90.21;100774.25;4976982;28;20063;-69
2022/06/05 04:23:10;;;;;;;14.23;9.88;;;;;;;18.53;91.64;100778.97;4975433;28;20054;-69
2022/06/05 04:25:41;;;;;;;14.05;9.55;;;;;;;18.36;92.74;100771.78;4977030;28;20139;-71
2022/06/05 04:28:12;;;;;;;14.57;10.48;;;;;;;18.45;92.95;100779.97;4975471;28;20046;-70
2022/06/05 04:30:40;;;;;;;17.60;10.98;;;;;;;18.54;92.53;100778.63;4975287;28;20050;-64
2022/06/05 04:33:07;;;;;;;18.17;10.50;;;;;;;18.58;92.35;100776.72;4959194;28;20046;-69
2022/06/05 04:35:36;;;;;;;12.98;9.32;;;;;;;18.83;91.40;100789.19;4976722;28;20052;-64
2022/06/05 04:38:04;;;;;;;14.82;9.18;;;;;;;18.74;91.06;100801.78;4974980;28;20054;-64
2022/06/05 04:40:31;;;;;;;15.70;9.90;;;;;;;18.76;91.38;100804.97;4976157;28;20046;-69
2022/06/05 04:42:58;;;;;;;13.43;8.88;;;;;;;18.79;91.18;100802.25;4976425;28;20050;-64
2022/06/05 04:45:26;;;;;;;15.48;9.98;;;;;;;19.09;90.08;100810.84;4976318;28;20051;-70
2022/06/05 04:47:53;;;;;;;16.17;9.63;;;;;;;18.85;89.83;100811.97;4959231;28;20078;-64
2022/06/05 04:50:21;;;;;;;13.20;8.50;;;;;;;18.50;91.64;100818.75;4959348;28;20050;-65
2022/06/05 04:52:48;;;;;;;15.10;8.77;;;;;;;18.94;89.77;100812.56;4976231;28;20423;-65
2022/06/05 04:55:15;;;;;;;14.05;8.57;;;;;;;18.25;93.52;100825.72;4959309;28;20081;-65
2022/06/05 04:57:44;;;;;;;14.25;8.43;;;;;;;18.15;94.68;100818.69;4975238;28;20058;-70
2022/06/05 05:00:11;;;;;;;13.43;9.05;;;;;;;18.28;94.88;100825.78;4975134;28;20602;-70
2022/06/05 05:02:39;;;;;;;13.20;8.73;;;;;;;18.84;92.89;100831.88;4976198;28;20051;-71
2022/06/05 05:05:07;;;;;;;13.52;8.50;;;;;;;18.92;90.04;100828.06;4976271;28;20055;-71
2022/06/05 05:07:35;;;;;;;13.35;8.07;;;;;;;19.05;88.94;100823.97;4976258;28;20047;-63
2022/06/05 05:10:03;;;;;;;11.65;7.82;;;;;;;18.91;89.09;100816.09;4976209;28;20058;-63
2022/06/05 05:12:30;;;;;;;13.43;7.63;;;;;;;19.01;89.05;100820.28;4958976;28;20058;-63
2022/06/05 05:14:58;;;;;;;13.43;8.15;;;;;;;18.90;89.22;100819.25;4974890;28;20494;-63
2022/06/05 05:17:26;;;;;;;14.10;7.63;;;;;;;19.20;87.93;100817.47;4975079;28;20054;-70
2022/06/05 05:19:55;;;;;;;12.85;7.88;;;;;;;18.77;89.89;100812.19;4976130;28;20150;-70
2022/06/05 05:22:23;;;;;;;11.38;7.55;;;;;;;18.99;89.25;100819.84;4958873;28;20062;-70
2022/06/05 05:24:50;;;;;;;10.65;6.82;;;;;;;19.18;87.85;100813.44;4976017;28;20418;-64
2022/06/05 05:27:19;;;;;;;10.93;7.07;;;;;;;19.34;87.08;100819.75;4975957;28;20042;-70
2022/06/05 05:29:46;;;;;;;12.27;7.00;;;;;;;19.25;86.80;100825.56;4975932;28;20062;-70
2022/06/05 05:32:14;;;;;;;12.10;6.65;;;;;;;19.35;86.45;100827.81;4975991;28;20054;-70
2022/06/05 05:34:41;;;;;;;11.23;6.75;;;;;;;19.44;86.20;100827.56;4975933;28;20051;-69
2022/06/05 05:37:09;;;;;;;10.80;6.70;;;;;;;19.61;85.88;100835.47;4990915;28;20061;-70
2022/06/05 05:42:22;;;;;;;10.82;6.32;;;;;;;19.90;83.37;100832.00;4975958;28;20849;-70
2022/06/05 05:44:51;;;;;;;11.10;6.72;;;;;;;19.79;83.58;100840.19;4975848;28;20050;-70
2022/06/05 05:47:21;;;;;;;12.23;6.38;;;;;;;19.93;83.85;100840.44;4991131;28;20057;-70
2022/06/05 05:49:52;;;;;;;;;;;;;;;20.07;83.23;100834.28;4975245;28;20070;-70
2022/06/05 05:52:21;;;;;;;9.35;6.00;;;;;;;19.99;82.97;100832.56;4979529;28;19957;-69
2022/06/05 05:54:49;;;;;;;9.93;6.30;;;;;;;20.04;82.94;100826.63;4994212;28;20059;-70
2022/06/05 05:57:16;;;;;;;11.27;6.20;;;;;;;20.24;82.48;100819.81;4994522;28;20058;-70
2022/06/05 05:59:44;;;;;;;10.88;6.32;;;;;;;20.22;82.68;100827.78;4978018;28;20062;-70
2022/06/05 06:02:16;;;;;;;10.95;6.32;;;;;;;20.29;82.96;100827.06;4979479;28;20057;-69
2022/06/05 06:04:43;;;;;;;11.55;6.10;;;;;;;20.29;82.61;100829.88;4979413;28;20058;-69
2022/06/05 06:07:12;;;;;;;10.38;5.55;;;;;;;20.32;82.33;100831.91;4962001;28;20047;-70
2022/06/05 06:09:41;;;;;;;11.30;6.13;;;;;;;20.51;81.18;100829.00;4977987;28;20054;-69
2022/06/05 06:12:09;;;;;;;11.32;6.28;;;;;;;20.17;81.77;100830.91;4979325;28;20521;-70
2022/06/05 06:14:37;;;;;;;9.40;4.88;;;;;;;20.50;81.26;100822.63;4978657;28;20057;-69
2022/06/05 06:17:04;;;;;;;8.77;5.53;;;;;;;20.55;80.62;100821.47;4994211;28;20054;-70
2022/06/05 06:19:32;;;;;;;10.02;5.35;;;;;;;20.96;79.18;100809.22;4974534;28;20073;-70
2022/06/05 06:21:59;;;;;;;8.23;5.45;;;;;;;20.81;79.25;100813.03;4979086;28;20051;-70
2022/06/05 06:24:27;;;;;;;10.05;4.93;;;;;;;20.85;79.17;100808.31;4978818;28;20050;-70
2022/06/05 06:26:54;;;;;;;8.40;5.18;;;;;;;21.01;78.99;100804.13;4993994;28;20545;-70
2022/06/05 06:29:22;;;;;;;12.25;4.60;;;;;;;21.04;78.52;100796.97;4978756;28;20624;-71
2022/06/05 06:31:49;;;;;;;7.80;4.53;;;;;;;20.99;78.62;100800.13;4978925;28;20058;-71
2022/06/05 06:34:16;;;;;;;10.40;4.90;;;;;;;20.77;79.57;100804.59;4978724;28;20062;-71
2022/06/05 06:36:44;;;;;;;8.75;4.25;;;;;;;21.24;77.72;100804.81;4993514;28;20391;-70
2022/06/05 06:39:18;;;;;;;6.38;4.03;;;;;;;21.32;78.11;100800.09;4978763;28;20070;-71
2022/06/05 06:41:45;;;;;;;8.25;3.92;;;;;;;21.40;77.91;100798.16;4961432;28;20051;-70
2022/06/05 06:44:13;;;;;;;11.35;4.13;;;;;;;21.32;78.10;100799.28;4977149;28;20063;-71
2022/06/05 06:46:41;;;;;;;8.27;3.78;;;;;;;21.26;78.78;100793.22;4961438;28;20051;-70
2022/06/05 06:49:09;;;;;;;5.97;3.30;;;;;;;21.36;78.59;100786.91;4977520;28;20053;-70
2022/06/05 06:51:36;;;;;;;8.27;3.25;;;;;;;21.18;79.48;100788.75;4961454;28;20042;-71
2022/06/05 06:54:04;;;;;;;9.90;4.43;;;;;;;21.32;79.07;100788.09;4978435;28;20058;-71
2022/06/05 06:56:33;;;;;;;6.93;3.70;;;;;;;21.55;79.02;100781.09;4977126;28;20061;-71
2022/06/05 06:59:02;;;;;;;7.05;3.42;;;;;;;21.54;77.69;100784.31;4978330;28;20054;-71
2022/06/05 07:01:29;;;;;;;6.90;3.30;;;;;;;21.39;77.74;100785.34;4978706;28;20047;-71
2022/06/05 07:03:57;;;;;;;9.02;3.28;;;;;;;21.20;77.83;100778.75;4960444;28;20410;-70
2022/06/05 07:06:24;;;;;;;8.75;3.38;;;;;;;20.97;79.33;100780.84;4961025;28;20061;-67
2022/06/05 07:08:54;;;;;;;7.15;3.63;;;;;;;20.83;79.90;100765.88;4978167;28;20134;-71
2022/06/05 07:11:22;;;;;;;6.30;3.25;;;;;;;20.37;82.19;100776.44;4978288;28;20054;-70
2022/06/05 07:13:49;;;;;;;7.88;3.55;;;;;;;20.64;82.03;100763.22;4977964;28;20058;-71
2022/06/05 07:16:18;;;;;;;8.25;3.50;;;;;;;20.68;81.75;100773.28;4977974;28;20054;-70
2022/06/05 07:18:46;;;;;;;6.78;3.33;;;;;;;20.88;81.40;100771.13;4977841;28;20051;-71
2022/06/05 07:21:20;;;;;;;9.38;3.15;;;;;;;21.21;79.37;100769.16;4978070;28;20047;-70
2022/06/05 07:23:48;;;;;;;8.50;3.47;;;;;;;21.01;79.05;100766.91;4976068;28;20063;-71
2022/06/05 07:26:18;;;;;;;5.90;3.08;;;;;;;21.00;79.30;100763.31;4960772;28;20506;-70
2022/06/05 07:28:45;;;;;;;;;;;;;;;20.99;79.55;100774.91;4978362;28;20058;-69
2022/06/05 07:31:14;;;;;;;8.98;4.00;;;;;;;20.92;80.31;100778.38;4978001;28;19929;-64
2022/06/05 07:33:42;;;;;;;8.00;3.63;;;;;;;20.77;79.97;100781.38;4992658;28;20062;-65
2022/06/05 07:36:13;;;;;;;7.25;3.90;;;;;;;20.50;81.49;100775.03;4977652;28;20058;-64
2022/06/05 07:38:40;;;;;;;6.80;3.45;;;;;;;20.52;80.90;100771.88;4992373;28;20509;-64
2022/06/05 07:41:18;;;;;;;8.38;3.38;;;;;;;21.44;78.46;100773.78;4975647;28;20062;-63
2022/06/05 07:43:45;;;;;;;9.10;3.70;;;;;;;22.12;73.50;100774.03;4977124;28;20586;-65
2022/06/05 07:46:13;;;;;;;9.70;3.35;;;;;;;22.03;74.12;100771.56;4977663;28;20062;-70
2022/06/05 07:48:40;;;;;;;5.88;3.22;;;;;;;22.05;73.87;100766.38;4976186;28;20059;-64
2022/06/05 07:56:44;;;;;;;7.63;3.53;;;;;;;22.50;73.02;100778.28;4962502;28;20058;-64
2022/06/05 07:59:12;;;;;;;8.48;3.05;;;;;;;22.15;71.05;100776.03;4975562;28;20064;-64
2022/06/05 08:02:03;;;;;;;6.53;3.05;;;;;;;21.49;74.37;100779.84;4990194;28;20046;-70
2022/06/05 08:04:33;;;;;;;5.80;2.72;;;;;;;21.62;73.89;100775.56;4977018;28;20422;-70
2022/06/05 08:07:01;;;;;;;7.68;2.72;;;;;;;21.55;74.04;100775.50;4975663;28;20042;-70
2022/06/05 08:09:29;;;;;;;9.40;3.03;;;;;;;21.45;74.93;100769.78;4977230;28;20061;-69
2022/06/05 08:11:56;;;;;;;5.13;2.67;;;;;;;21.64;74.68;100784.41;4976962;28;20045;-64
2022/06/05 08:14:24;;;;;;;8.43;2.70;;;;;;;21.91;73.03;100782.28;4975765;28;20078;-70
2022/06/05 08:16:52;;;;;;;5.38;2.35;;;;;;;22.19;72.73;100788.13;4959837;28;20062;-70
2022/06/05 08:19:22;;;;;;;6.10;2.53;;;;;;;21.96;71.50;100782.72;4972404;28;20074;-70
2022/06/05 08:21:52;;;;;;;6.68;2.20;;;;;;;21.83;72.62;100786.19;4976705;28;20057;-70
2022/06/05 08:24:19;;;;;;;7.25;2.55;;;;;;;21.96;72.49;100784.72;4975435;28;20043;-69
2022/06/05 08:26:47;;;;;;;6.35;2.50;;;;;;;21.78;72.47;100792.16;4959636;28;20059;-70
2022/06/05 08:29:15;;;;;;;6.57;2.30;;;;;;;21.65;73.17;100793.63;4976728;28;20498;-70
2022/06/05 08:31:43;;;;;;;6.68;2.50;;;;;;;21.72;72.59;100802.91;4976702;28;20517;-69
2022/06/05 08:34:12;;;;;;;6.13;2.28;;;;;;;;;;4975749;28;20062;-70
2022/06/05 08:36:39;;;;;;;6.70;2.70;;;;;;;21.87;71.83;100801.88;4976531;28;20042;-70
2022/06/05 08:42:05;;;;;;;9.82;2.40;;;;;;;21.62;71.14;100817.63;4976680;28;20050;-64
2022/06/05 08:44:47;;;;;;;6.80;2.33;;;;;;;21.59;71.17;100818.41;4974996;28;20046;-64
2022/06/05 08:47:20;;;;;;;6.60;2.35;;;;;;;21.21;72.31;100830.00;4976683;28;20058;-71
2022/06/05 08:49:53;;;;;;;8.38;2.65;;;;;;;21.13;72.96;100820.69;4943673;28;20051;-64
2022/06/05 08:52:49;;;;;;;6.78;2.83;;;;;;;21.03;73.66;100824.16;4976381;28;20410;-65
2022/06/05 08:55:25;;;;;;;7.80;2.63;;;;;;;20.86;75.00;100821.09;4959201;28;20521;-64
2022/06/05 08:58:11;;;;;;;6.60;3.03;;;;;;;20.46;77.01;100824.56;4974842;28;20059;-64
2022/06/05 09:00:52;;;;;;;7.25;3.05;;;;;;;20.31;78.79;100819.91;4975085;28;20057;-64
2022/06/05 09:03:48;;;;;;;7.50;3.08;;;;;;;20.50;78.72;100821.81;4959078;28;20067;-63
2022/06/05 09:06:36;;;;;;;8.73;3.88;;;;;;;20.85;77.56;100817.50;4959463;28;20062;-64
2022/06/05 09:09:18;;;;;;;8.18;3.50;;;;;;;20.62;78.50;100829.97;4959081;28;20066;-71
2022/06/05 09:12:03;;;;;;;5.68;3.33;;;;;;;20.77;77.47;100827.00;4959123;28;20545;-64
2022/06/05 09:14:39;;;;;;;9.10;3.92;;;;;;;20.75;77.96;100831.34;4990790;28;20050;-65
2022/06/05 09:17:13;;;;;;;7.65;3.63;;;;;;;20.66;78.44;100844.84;4975141;28;20059;-70
2022/06/05 09:19:44;;;;;;;8.52;3.67;;;;;;;20.65;78.08;100849.63;4975094;28;20047;-70
2022/06/05 09:22:20;;;;;;;8.23;3.95;;;;;;;20.63;77.85;100848.38;4943464;28;20054;-71
2022/06/05 09:25:02;;;;;;;7.35;3.67;;;;;;;20.45;79.49;100848.09;4975981;28;20065;-66
2022/06/05 09:27:51;;;;;;;15.43;3.72;;;;;;;20.35;79.60;100865.53;4963018;28;20114;-64
2022/06/05 09:30:28;;;;;;;5.63;3.50;;;;;;;20.35;80.46;100873.94;4962249;28;20066;-64
2022/06/05 09:32:58;;;;;;;6.15;3.20;;;;;;;20.68;78.46;100876.84;4978778;28;20255;-64
2022/06/05 09:35:43;;;;;;;10.02;4.07;;;;;;;20.82;78.63;100874.25;4978537;28;20047;-65
2022/06/05 09:38:37;;;;;;;8.88;3.78;;;;;;;20.70;79.59;100882.06;4962692;28;20062;-70
2022/06/05 09:41:05;;;;;;;9.30;3.95;;;;;;;20.72;79.13;100885.31;4962730;28;20047;-70
2022/06/05 09:43:55;;;;;;;7.85;4.28;;;;;;;20.70;79.88;100880.09;4979936;28;20429;-69
2022/06/05 09:46:59;;;;;;;11.63;4.60;;;;;;;20.95;78.43;100886.03;4962826;28;20077;-63
2022/06/05 09:49:45;;;;;;;8.50;4.38;;;;;;;20.56;80.56;100891.06;4994479;28;20051;-70
2022/06/05 09:52:20;;;;;;;8.93;4.25;;;;;;;20.46;80.61;100888.09;4962291;28;20046;-70
2022/06/05 09:55:06;;;;;;;8.48;4.13;;;;;;;20.61;79.68;100881.53;4962105;28;20043;-69
2022/06/05 10:00:48;;;;;;;7.78;4.50;;;;;;;20.45;79.55;100900.47;4979443;28;20055;-70
2022/06/05 10:03:20;;;;;;;8.77;4.70;;;;;;;20.50;78.53;100900.16;4979496;28;20069;-70
2022/06/05 10:06:25;;;;;;;7.20;3.72;;;;;;;20.62;77.86;100902.75;4978351;28;20055;-71
2022/06/05 10:09:11;;;;;;;9.00;4.32;;;;;;;20.54;78.08;100903.84;4979543;28;20863;-72
2022/06/05 10:11:59;;;;;;;8.32;4.13;;;;;;;20.46;78.50;100910.47;4978323;28;20051;-70
2022/06/05 10:14:47;;;;;;;7.38;4.38;;;;;;;20.51;78.34;100918.56;4977520;28;20058;-71
2022/06/05 10:17:56;;;;;;;8.77;4.43;;;;;;;20.65;77.62;100924.38;4971457;28;20637;-69
2022/06/05 10:20:36;;;;;;;6.83;4.00;;;;;;;20.67;77.38;100917.25;4974397;28;20058;-64
2022/06/05 10:23:32;;;;;;;6.90;4.32;;;;;;;20.65;77.67;100927.19;4961743;28;20047;-65
2022/06/05 10:26:13;;;;;;;7.05;4.35;;;;;;;20.45;78.56;100926.44;4945648;28;20066;-70
2022/06/05 10:28:42;;;;;;;9.63;4.55;;;;;;;20.52;78.13;100937.75;4993849;28;20058;-70
2022/06/05 10:31:22;;;;;;;10.10;5.32;;;;;;;20.05;79.35;100926.13;4979065;28;20058;-69
2022/06/05 10:34:05;;;;;;;7.60;5.53;;;;;;;20.31;79.03;100923.41;4993801;28;20066;-69
2022/06/05 10:37:01;;;;;;;8.80;5.20;;;;;;;20.51;77.85;100924.16;4978025;28;20062;-70
2022/06/05 10:39:50;;;;;;;10.65;6.00;;;;;;;20.62;77.19;100930.75;4940883;28;20051;-64
2022/06/05 10:42:51;;;;;;;12.32;6.20;;;;;;;20.37;77.43;100932.31;4977723;28;20050;-70
2022/06/05 10:45:23;;;;;;;9.38;6.70;;;;;;;19.99;79.86;100922.03;4963283;28;20054;-72
2022/06/05 10:47:56;;;;;;;10.68;7.20;;;;;;;20.38;77.47;100929.13;4961742;28;20057;-71
2022/06/05 10:50:32;;;;;;;11.77;6.55;;;;;;;20.50;77.40;100928.16;4979020;28;20058;-70
2022/06/05 10:53:11;;;;;;;10.95;6.72;;;;;;;20.19;78.41;100926.41;4978930;28;20058;-70
2022/06/05 10:55:53;;;;;;;8.95;7.25;;;;;;;20.21;78.63;100931.66;4977482;28;20410;-70
2022/06/05 10:58:31;;;;;;;8.60;6.32;;;;;;;20.17;78.81;100931.59;4978724;28;20058;-71
2022/06/05 11:01:20;;;;;;;11.05;7.05;;;;;;;20.22;78.21;100933.25;4961298;28;20153;-71
2022/06/05 11:03:59;;;;;;;10.50;7.07;;;;;;;20.10;79.20;100935.00;4945371;28;20055;-68
2022/06/05 11:07:10;;;;;;;14.57;8.70;;;;;;;19.46;83.05;100928.56;4961436;28;20058;-67
2022/06/05 11:09:48;;;;;;;13.30;8.73;;;;;;;19.46;83.41;100934.97;4978451;28;20058;-71
2022/06/05 11:15:29;;;;;;;9.82;7.32;;;;;;;20.12;80.69;100948.63;4978173;28;20054;-64
2022/06/05 11:18:17;;;;;;;10.32;8.70;;;;;;;19.77;81.10;100942.38;4978218;28;20061;-71
2022/06/05 11:20:54;;;;;;;10.88;7.78;;;;;;;19.68;81.63;100939.78;4961072;28;20057;-63
2022/06/05 11:23:28;;;;;;;12.73;8.65;;;;;;;19.80;82.05;100936.88;4960809;28;20042;-64
2022/06/05 11:26:23;;;;;;;12.98;8.70;;;;;;;20.02;80.18;100944.47;4977990;28;20055;-64
2022/06/05 11:29:14;;;;;;;12.60;7.25;;;;;;;19.93;80.61;100940.28;4960272;28;20047;-64
2022/06/05 11:31:59;;;;;;;13.95;8.07;;;;;;;19.98;80.63;100948.34;4977341;28;20057;-65
2022/06/05 11:34:48;;;;;;;10.23;7.55;;;;;;;20.20;79.69;100941.22;4976657;28;20057;-65
2022/06/05 11:37:15;;;;;;;9.57;7.15;;;;;;;20.30;77.61;100952.59;4976217;28;20070;-64
2022/06/05 11:40:31;;;;;;;9.70;7.18;;;;;;;20.03;78.67;100946.06;4976148;28;20058;-64
2022/06/05 11:43:09;;;;;;;9.93;7.45;;;;;;;20.08;78.75;100959.75;4955843;28;20063;-65
2022/06/05 11:45:55;;;;;;;9.60;8.15;;;;;;;19.92;80.12;100956.28;4976218;28;20514;-70
2022/06/05 11:48:36;;;;;;;10.18;7.88;;;;;;;19.99;80.04;100959.19;4977483;28;20091;-70
2022/06/05 11:51:05;;;;;;;13.50;8.27;;;;;;;20.20;79.13;100960.78;4977328;28;20070;-70
2022/06/05 11:53:39;;;;;;;10.02;7.90;;;;;;;20.49;78.20;100962.91;4959990;28;20055;-70
2022/06/05 11:56:54;;;;;;;12.15;8.60;;;;;;;20.85;75.65;100965.09;4960363;28;20410;-70
2022/06/05 11:59:45;;;;;;;10.52;7.47;;;;;;;20.87;74.89;100976.75;4965477;28;20062;-71
2022/06/05 12:02:31;;;;;;;11.55;7.05;;;;;;;21.20;73.15;100974.88;4959952;28;20059;-71
2022/06/05 12:05:13;;;;;;;9.65;8.32;;;;;;;21.12;73.00;100972.34;4977164;28;20051;-70
2022/06/05 12:07:42;;;;;;;10.27;7.63;;;;;;;20.48;75.59;100964.09;4960152;28;20124;-70
2022/06/05 12:10:17;;;;;;;12.00;7.22;;;;;;;20.61;75.71;100979.50;4977069;28;20387;-64
2022/06/05 12:12:55;;;;;;;10.45;7.63;;;;;;;20.58;75.54;100969.88;4959402;28;20058;-64